VGEG/CGP METAR and TAF weather

Enter ICAO airport designator
Station Type Date Time Source
VGEG METAR 2019/02/23 01:00 UTC NOAA

VGEG 230100Z 00000KT 1600 BR NSC 20/19 Q1012 TEMPO S/VIS 1800M OR LESS


Station Type Date Time Source
VGEG Decoded METAR 2019/02/23 01:00 UTC NOAA

Chittagong Patenga , Bangladesh (VGEG) 22-16N 091-49E 6M
Feb 22, 2019 - 08:00 PM EST / 2019.02.23 0100 UTC
Wind: Calm:0
Visibility: less than 1 mile:0
Weather: mist
Temperature: 68 F (20 C)
Dew Point: 66 F (19 C)
Relative Humidity: 93%
Pressure (altimeter): 29.88 in. Hg (1012 hPa)
ob: VGEG 230100Z 00000KT 1600 BR NSC 20/19 Q1012 TEMPO S/VIS 1800M OR LESS
cycle: 1

Station Type Date Time Source
VGEG TAF 2019/02/22 18:36 UTC NOAA

TAF TAF VGEG 221700Z 2218/2324 00000KT 3100 HZ NSC
BECMG 2222/2224 05003KT 2500 BR SCT015
TEMPO 2223/2303 00000KT 0800 FG BKN007
BECMG 2303/2305 24008KT 4000 HZ NSC


Example: see airport list